Woolwine, Virginia
Current Conditions -  °F | °C
As of 9:35 PM on Tuesday 21 Oct 2014 (Local Time) from KMTV Reporting Station
Broken Clouds Broken Clouds  
Wind Chill: 53°   Ceiling: 9000
Heat Index: 53°   Visibility: 10mi
Dew Point: 40°   Wind: 7mph
Humidity: 64%   Direction: 310°NW
Pressure: 30"   Gusts: NA
Location:  36.79°N, 80.28°W
Report Text: KMTV 220135Z AUTO 31006KT 10SM BKN090 11/05 A3000 RMK AO2 T01140047
Loading
Personal Weather Stations






























Interactive Weather Map
Tropical Storm Tracking
New forecast layout! Learn more

10-Day Weather Forecast

Advertisements
Track Severe Weather on mobile